createdAt,value
2022-11-03T00:02:28.116Z,20.10
2022-11-03T00:04:58.413Z,20.10
2022-11-03T00:07:28.633Z,20.10
2022-11-03T00:09:58.807Z,20.10
2022-11-03T00:12:29.171Z,20.10
2022-11-03T00:14:59.602Z,20.10
2022-11-03T00:17:29.829Z,20.10
2022-11-03T00:20:00.050Z,20.20
2022-11-03T00:22:31.585Z,20.20
2022-11-03T00:25:02.018Z,20.20
2022-11-03T00:27:32.343Z,20.20
2022-11-03T00:30:02.588Z,20.30
2022-11-03T00:32:33.175Z,20.30
2022-11-03T00:35:03.426Z,20.30
2022-11-03T00:37:33.704Z,20.30
2022-11-03T00:40:03.884Z,20.40
2022-11-03T00:42:36.903Z,20.40
2022-11-03T00:45:07.295Z,20.40
2022-11-03T00:47:57.226Z,20.40
2022-11-03T00:50:27.375Z,20.40
2022-11-03T00:52:57.656Z,20.40
2022-11-03T00:55:27.808Z,20.40
2022-11-03T00:57:57.932Z,20.40
2022-11-03T01:00:28.200Z,20.40
2022-11-03T01:02:58.433Z,20.40
2022-11-03T01:05:46.931Z,20.40
2022-11-03T01:08:17.415Z,20.40
2022-11-03T01:11:07.578Z,20.40
2022-11-03T01:13:37.811Z,20.40
2022-11-03T01:16:08.273Z,20.40
2022-11-03T01:18:38.768Z,20.40
2022-11-03T01:21:09.093Z,20.40
2022-11-03T01:23:39.352Z,20.40
2022-11-03T01:26:13.999Z,20.40
2022-11-03T01:28:46.647Z,20.50
2022-11-03T01:31:28.032Z,20.50
2022-11-03T01:33:59.246Z,20.50
2022-11-03T01:36:29.832Z,20.50
2022-11-03T01:39:00.171Z,20.50
2022-11-03T01:41:31.493Z,20.50
2022-11-03T01:44:10.876Z,20.60
2022-11-03T01:47:09.335Z,20.60
2022-11-03T01:49:39.466Z,20.60
2022-11-03T01:52:19.174Z,20.60
2022-11-03T01:54:54.541Z,20.70
2022-11-03T01:57:29.549Z,20.70
2022-11-03T02:00:01.639Z,20.70
2022-11-03T02:02:31.968Z,20.70
2022-11-03T02:05:04.893Z,20.70
2022-11-03T02:07:55.729Z,20.70
2022-11-03T02:10:27.174Z,20.80
2022-11-03T02:13:01.783Z,20.80
2022-11-03T02:15:32.778Z,20.80
2022-11-03T02:18:04.701Z,20.90
2022-11-03T02:20:36.338Z,20.90
2022-11-03T02:23:10.001Z,20.90
2022-11-03T02:26:01.800Z,21.00
2022-11-03T02:28:34.755Z,21.00
2022-11-03T02:31:27.061Z,21.00
2022-11-03T02:34:18.676Z,21.00
2022-11-03T02:37:01.493Z,21.00
2022-11-03T02:39:47.576Z,21.10
2022-11-03T02:42:20.732Z,21.10
2022-11-03T02:44:52.239Z,21.10
2022-11-03T02:47:26.155Z,21.10
2022-11-03T02:49:57.692Z,21.10
2022-11-03T02:52:42.519Z,21.20
2022-11-03T02:55:40.001Z,21.20
2022-11-03T02:58:19.585Z,21.30
2022-11-03T03:00:58.607Z,21.30
2022-11-03T03:03:41.793Z,21.20
2022-11-03T03:06:16.929Z,21.20
2022-11-03T03:08:50.583Z,21.20
2022-11-03T03:11:39.084Z,21.20
2022-11-03T03:14:27.281Z,21.20
2022-11-03T03:17:11.381Z,21.30
2022-11-03T03:19:47.316Z,21.30
2022-11-03T03:22:20.909Z,21.30
2022-11-03T03:25:39.821Z,21.30
2022-11-03T03:28:17.590Z,21.30
2022-11-03T03:30:49.026Z,21.40
2022-11-03T03:33:21.603Z,21.30
2022-11-03T03:35:53.988Z,21.40
2022-11-03T03:38:32.935Z,21.40
2022-11-03T03:41:09.546Z,21.50
2022-11-03T03:43:41.776Z,21.40
2022-11-03T03:46:16.054Z,21.40
2022-11-03T03:48:46.402Z,21.40
2022-11-03T03:51:21.452Z,21.40
2022-11-03T03:53:56.162Z,21.40
2022-11-03T03:56:45.229Z,21.50
2022-11-03T03:59:15.465Z,21.50
2022-11-03T04:01:45.792Z,21.50
2022-11-03T04:04:16.183Z,21.50
2022-11-03T04:06:46.366Z,21.50
2022-11-03T04:09:16.848Z,21.60
2022-11-03T04:12:05.128Z,21.60
2022-11-03T04:14:53.069Z,21.60
2022-11-03T04:17:41.695Z,21.60
2022-11-03T04:20:33.878Z,21.60
2022-11-03T04:23:04.033Z,21.60
2022-11-03T04:25:34.317Z,21.60
2022-11-03T04:28:10.907Z,21.60
2022-11-03T04:30:41.313Z,21.60
2022-11-03T04:33:21.902Z,21.70
2022-11-03T04:35:52.079Z,21.60
2022-11-03T04:38:28.628Z,21.70
2022-11-03T04:41:00.675Z,21.70
2022-11-03T04:43:40.268Z,21.70
2022-11-03T04:46:15.074Z,21.70
2022-11-03T04:48:46.644Z,21.70
2022-11-03T04:51:22.449Z,21.70
2022-11-03T04:54:21.268Z,21.70
2022-11-03T04:56:51.542Z,21.70
2022-11-03T04:59:21.755Z,21.70
2022-11-03T05:01:52.254Z,21.70
2022-11-03T05:04:22.559Z,21.70
2022-11-03T05:06:55.433Z,21.70
2022-11-03T05:09:32.204Z,21.70
2022-11-03T05:12:02.512Z,21.70
2022-11-03T05:14:34.931Z,21.70
2022-11-03T05:17:09.859Z,21.70
2022-11-03T05:19:43.945Z,21.70
2022-11-03T05:22:24.385Z,21.80
2022-11-03T05:25:02.869Z,21.80
2022-11-03T05:27:33.464Z,21.70
2022-11-03T05:30:04.295Z,21.70
2022-11-03T05:32:36.846Z,21.70
2022-11-03T05:35:14.193Z,21.70
2022-11-03T05:37:45.145Z,21.70
2022-11-03T05:40:33.566Z,21.70
2022-11-03T05:43:07.351Z,21.70
2022-11-03T05:45:41.638Z,21.70
2022-11-03T05:48:35.676Z,21.70
2022-11-03T05:51:33.802Z,21.80
2022-11-03T05:54:07.626Z,21.70
2022-11-03T05:56:38.234Z,21.70
2022-11-03T05:59:10.337Z,21.70
2022-11-03T06:01:43.011Z,21.80
2022-11-03T06:04:39.244Z,21.80
2022-11-03T06:07:28.293Z,21.80
2022-11-03T06:09:58.746Z,21.80
2022-11-03T06:12:32.120Z,21.80
2022-11-03T06:15:02.540Z,21.80
2022-11-03T06:17:32.825Z,21.80
2022-11-03T06:20:03.845Z,21.80
2022-11-03T06:22:42.897Z,21.80
2022-11-03T06:25:29.635Z,21.90
2022-11-03T06:28:07.761Z,21.80
2022-11-03T06:33:38.790Z,21.90
2022-11-03T06:36:21.380Z,21.90
2022-11-03T06:38:59.143Z,21.80
2022-11-03T06:41:32.956Z,21.80
2022-11-03T06:44:17.722Z,21.80
2022-11-03T06:46:48.001Z,21.80
2022-11-03T06:49:38.015Z,21.80
2022-11-03T06:52:29.528Z,21.90
2022-11-03T06:55:32.610Z,21.90
2022-11-03T06:58:25.914Z,21.80
2022-11-03T07:01:03.052Z,21.80
2022-11-03T07:03:36.929Z,21.80
2022-11-03T07:06:28.995Z,21.90
2022-11-03T07:09:02.494Z,21.80
2022-11-03T07:11:50.180Z,21.80
2022-11-03T07:14:27.177Z,21.80
2022-11-03T07:17:07.092Z,21.80
2022-11-03T07:19:40.463Z,21.80
2022-11-03T07:22:30.540Z,21.80
2022-11-03T07:25:05.982Z,21.90
2022-11-03T07:27:40.838Z,21.80
2022-11-03T07:30:17.626Z,21.80
2022-11-03T07:32:48.369Z,21.80
2022-11-03T07:35:41.861Z,21.80
2022-11-03T07:38:29.077Z,21.80
2022-11-03T07:41:01.176Z,21.80
2022-11-03T07:43:34.701Z,21.80
2022-11-03T07:46:06.855Z,21.80
2022-11-03T07:48:49.933Z,21.80
2022-11-03T07:51:49.859Z,21.80
2022-11-03T07:54:33.872Z,21.80
2022-11-03T07:57:17.280Z,21.80
2022-11-03T07:59:52.939Z,21.70
2022-11-03T08:02:38.288Z,21.70
2022-11-03T08:05:09.242Z,21.70
2022-11-03T08:07:39.727Z,21.70
2022-11-03T08:10:10.282Z,21.70
2022-11-03T08:12:40.683Z,21.80
2022-11-03T08:15:11.356Z,21.80
2022-11-03T08:17:41.627Z,21.70
2022-11-03T08:20:12.285Z,21.70
2022-11-03T08:22:49.859Z,21.70
2022-11-03T08:25:32.744Z,21.70
2022-11-03T08:28:05.849Z,21.70
2022-11-03T08:30:36.147Z,21.70
2022-11-03T08:33:06.799Z,21.70
2022-11-03T08:35:37.615Z,21.70
2022-11-03T08:38:10.609Z,21.70
2022-11-03T08:40:40.812Z,21.70
2022-11-03T08:43:11.108Z,21.70
2022-11-03T08:45:43.045Z,21.70
2022-11-03T08:48:15.015Z,21.70
2022-11-03T08:50:46.557Z,21.70
2022-11-03T08:53:18.057Z,21.70
2022-11-03T08:55:49.802Z,21.70
2022-11-03T08:58:21.514Z,21.70
2022-11-03T09:00:52.875Z,21.70
2022-11-03T09:03:23.854Z,21.70
2022-11-03T09:05:54.156Z,21.60
2022-11-03T09:11:20.760Z,21.60
2022-11-03T09:13:51.280Z,21.60
2022-11-03T09:16:21.454Z,21.60
2022-11-03T09:18:51.697Z,21.60
2022-11-03T09:21:22.169Z,21.60
2022-11-03T09:23:52.721Z,21.60
2022-11-03T09:26:23.478Z,21.60
2022-11-03T09:28:53.820Z,21.70
2022-11-03T09:31:25.202Z,21.60
2022-11-03T09:33:55.331Z,21.60
2022-11-03T09:36:26.593Z,21.60
2022-11-03T09:38:57.725Z,21.60
2022-11-03T09:41:53.837Z,21.60
2022-11-03T09:44:20.266Z,21.60
2022-11-03T09:46:58.079Z,21.60
2022-11-03T09:49:34.188Z,21.60
2022-11-03T09:52:06.969Z,21.60
2022-11-03T09:54:37.901Z,21.60
2022-11-03T09:57:18.377Z,21.60
2022-11-03T09:59:51.761Z,21.60
2022-11-03T10:02:30.482Z,21.50
2022-11-03T10:05:09.742Z,21.60
2022-11-03T10:07:41.676Z,21.50
2022-11-03T10:10:20.282Z,21.50
2022-11-03T10:12:54.780Z,21.50
2022-11-03T10:15:26.987Z,21.60
2022-11-03T10:17:58.044Z,21.50
2022-11-03T10:20:30.594Z,21.50
2022-11-03T10:23:00.783Z,21.60
2022-11-03T10:25:37.815Z,21.50
2022-11-03T10:28:23.705Z,21.50
2022-11-03T10:31:12.720Z,21.50
2022-11-03T10:33:56.357Z,21.50
2022-11-03T10:36:30.294Z,21.50
2022-11-03T10:39:04.130Z,21.50
2022-11-03T10:41:36.448Z,21.50
2022-11-03T10:44:23.939Z,21.50
2022-11-03T10:47:04.323Z,21.50
2022-11-03T10:49:43.812Z,21.50
2022-11-03T10:52:26.030Z,21.40
2022-11-03T10:54:59.905Z,21.50
2022-11-03T10:57:31.051Z,21.40
2022-11-03T11:00:01.500Z,21.50
2022-11-03T11:02:38.121Z,21.50
2022-11-03T11:05:25.397Z,21.50
2022-11-03T11:07:57.187Z,21.50
2022-11-03T11:10:30.076Z,21.50
2022-11-03T11:13:26.258Z,21.50
2022-11-03T11:16:04.422Z,21.40
2022-11-03T11:18:35.033Z,21.50
2022-11-03T11:21:28.071Z,21.50
2022-11-03T11:23:59.031Z,21.50
2022-11-03T11:26:31.206Z,21.40
2022-11-03T11:29:15.201Z,21.50
2022-11-03T11:31:47.869Z,21.50
2022-11-03T11:34:21.477Z,21.40
2022-11-03T11:36:57.421Z,21.50
2022-11-03T11:39:30.550Z,21.50
2022-11-03T11:42:23.746Z,21.40
2022-11-03T11:45:01.644Z,21.50
2022-11-03T11:47:45.236Z,21.40
2022-11-03T11:50:15.878Z,21.40
2022-11-03T11:53:03.064Z,21.40
2022-11-03T11:55:43.953Z,21.30
2022-11-03T11:58:22.788Z,21.30
2022-11-03T12:00:58.661Z,21.30
2022-11-03T12:03:37.109Z,21.30
2022-11-03T12:06:08.206Z,21.30
2022-11-03T12:08:38.461Z,21.20
2022-11-03T12:11:10.333Z,21.20
2022-11-03T12:13:45.676Z,21.20
2022-11-03T12:16:37.978Z,21.20
2022-11-03T12:19:36.219Z,21.20
2022-11-03T12:22:26.292Z,21.20
2022-11-03T12:25:00.934Z,21.10
2022-11-03T12:27:31.166Z,21.10
2022-11-03T12:30:03.962Z,21.10
2022-11-03T12:32:35.450Z,21.10
2022-11-03T12:35:08.005Z,21.10
2022-11-03T12:37:38.424Z,21.10
2022-11-03T12:40:09.251Z,21.10
2022-11-03T12:42:39.544Z,21.00
2022-11-03T12:45:10.578Z,21.00
2022-11-03T12:47:41.019Z,21.00
2022-11-03T12:50:11.799Z,21.00
2022-11-03T12:52:42.063Z,21.00
2022-11-03T12:55:12.392Z,21.00
2022-11-03T12:57:42.693Z,20.90
2022-11-03T13:00:14.006Z,20.90
2022-11-03T13:02:44.355Z,20.90
2022-11-03T13:05:17.007Z,20.90
2022-11-03T13:07:47.480Z,20.90
2022-11-03T13:10:18.908Z,20.80
2022-11-03T13:12:49.271Z,20.80
2022-11-03T13:15:19.578Z,20.80
2022-11-03T13:18:12.135Z,20.80
2022-11-03T13:20:40.620Z,20.80
2022-11-03T13:23:11.235Z,20.80
2022-11-03T13:25:41.762Z,20.80
2022-11-03T13:28:12.160Z,20.70
2022-11-03T13:30:43.121Z,20.70
2022-11-03T13:33:13.367Z,20.70
2022-11-03T13:35:43.622Z,20.70
2022-11-03T13:38:14.259Z,20.60
2022-11-03T13:41:05.299Z,20.60
2022-11-03T13:43:34.785Z,20.60
2022-11-03T13:46:06.457Z,20.60
2022-11-03T13:51:27.036Z,20.50
2022-11-03T13:59:37.748Z,20.50
2022-11-03T14:04:59.529Z,20.50
2022-11-03T14:07:30.387Z,20.40
2022-11-03T14:10:03.725Z,20.40
2022-11-03T14:12:34.780Z,20.40
2022-11-03T14:15:10.923Z,20.40
2022-11-03T14:17:42.176Z,20.40
2022-11-03T14:20:14.903Z,20.40
2022-11-03T14:22:45.196Z,20.40
2022-11-03T14:25:15.553Z,20.40
2022-11-03T14:27:45.881Z,20.30
2022-11-03T14:30:16.830Z,20.30
2022-11-03T14:32:47.148Z,20.30
2022-11-03T14:35:18.569Z,20.30
2022-11-03T14:37:48.814Z,20.30
2022-11-03T14:40:39.052Z,20.30
2022-11-03T14:43:09.322Z,20.20
2022-11-03T14:45:42.523Z,20.20
2022-11-03T14:48:13.099Z,20.20
2022-11-03T14:50:43.274Z,20.20
2022-11-03T14:53:13.497Z,20.20
2022-11-03T14:55:43.771Z,20.20
2022-11-03T14:58:13.957Z,20.20
2022-11-03T15:00:44.373Z,20.10
2022-11-03T15:03:14.622Z,20.10
2022-11-03T15:05:50.975Z,20.10
2022-11-03T15:08:28.286Z,20.10
2022-11-03T15:10:58.823Z,20.10
2022-11-03T15:13:29.178Z,20.10
2022-11-03T15:15:59.846Z,20.10
2022-11-03T15:18:30.381Z,20.00
2022-11-03T15:21:01.156Z,20.00
2022-11-03T15:26:21.821Z,20.00
2022-11-03T15:28:51.993Z,20.00
2022-11-03T15:31:22.394Z,20.00
2022-11-03T15:33:52.716Z,20.00
2022-11-03T15:36:23.922Z,19.90
2022-11-03T15:38:54.076Z,20.00
2022-11-03T15:41:24.470Z,20.00
2022-11-03T15:43:54.680Z,19.90
2022-11-03T15:46:25.958Z,19.90
2022-11-03T15:48:58.150Z,19.90
2022-11-03T15:51:28.332Z,19.90
2022-11-03T15:53:59.313Z,19.90
2022-11-03T15:56:30.448Z,19.80
2022-11-03T15:59:01.059Z,19.90
2022-11-03T16:01:31.573Z,19.80
2022-11-03T16:04:02.766Z,19.80
2022-11-03T16:07:06.016Z,19.80
2022-11-03T16:09:23.860Z,19.80
2022-11-03T16:11:54.071Z,19.80
2022-11-03T16:14:24.402Z,19.80
2022-11-03T16:16:54.740Z,19.80
2022-11-03T16:19:24.955Z,19.70
2022-11-03T16:21:55.367Z,19.70
2022-11-03T16:24:33.271Z,19.70
2022-11-03T16:27:06.488Z,19.70
2022-11-03T16:29:36.857Z,19.70
2022-11-03T16:32:07.246Z,19.70
2022-11-03T16:34:37.564Z,19.70
2022-11-03T16:37:08.229Z,19.70
2022-11-03T16:39:40.773Z,19.70
2022-11-03T16:42:11.063Z,19.70
2022-11-03T16:44:41.347Z,19.60
2022-11-03T16:47:11.613Z,19.60
2022-11-03T16:49:43.479Z,19.60
2022-11-03T16:52:13.852Z,19.60
2022-11-03T16:54:44.044Z,19.60
2022-11-03T16:57:14.257Z,19.60
2022-11-03T16:59:44.493Z,19.60
2022-11-03T17:02:16.612Z,19.60
2022-11-03T17:04:47.117Z,19.60
2022-11-03T17:07:17.425Z,19.50
2022-11-03T17:09:47.688Z,19.50
2022-11-03T17:12:17.925Z,19.50
2022-11-03T17:14:51.191Z,19.50
2022-11-03T17:17:24.302Z,19.50
2022-11-03T17:19:54.653Z,19.50
2022-11-03T17:22:25.243Z,19.50
2022-11-03T17:24:55.476Z,19.40
2022-11-03T17:27:25.797Z,19.40
2022-11-03T17:30:06.283Z,19.40
2022-11-03T17:32:44.847Z,19.40
2022-11-03T17:35:27.966Z,19.40
2022-11-03T17:37:58.392Z,19.40
2022-11-03T17:40:29.257Z,19.40
2022-11-03T17:42:59.774Z,19.40
2022-11-03T17:45:31.042Z,19.40
2022-11-03T17:48:01.215Z,19.40
2022-11-03T17:50:31.465Z,19.30
2022-11-03T17:53:01.720Z,19.30
2022-11-03T17:55:34.535Z,19.30
2022-11-03T17:58:06.533Z,19.30
2022-11-03T18:00:38.389Z,19.30
2022-11-03T18:03:16.603Z,19.30
2022-11-03T18:05:46.941Z,19.30
2022-11-03T18:08:19.483Z,19.20
2022-11-03T18:10:55.635Z,19.20
2022-11-03T18:13:35.305Z,19.20
2022-11-03T18:16:10.836Z,19.20
2022-11-03T18:18:44.546Z,19.20
2022-11-03T18:21:18.578Z,19.20
2022-11-03T18:23:49.055Z,19.20
2022-11-03T18:26:20.924Z,19.20
2022-11-03T18:28:52.228Z,19.10
2022-11-03T18:31:25.220Z,19.10
2022-11-03T18:33:56.284Z,19.10
2022-11-03T18:36:26.876Z,19.10
2022-11-03T18:38:59.858Z,19.10
2022-11-03T18:41:42.167Z,19.20
2022-11-03T18:44:17.776Z,19.10
2022-11-03T18:46:49.190Z,19.10
2022-11-03T18:49:20.140Z,19.10
2022-11-03T18:52:03.049Z,19.00
2022-11-03T18:54:36.781Z,19.00
2022-11-03T18:57:07.093Z,19.00
2022-11-03T18:59:40.429Z,19.00
2022-11-03T19:02:27.068Z,19.00
2022-11-03T19:04:57.409Z,19.00
2022-11-03T19:07:37.737Z,19.00
2022-11-03T19:10:11.090Z,19.00
2022-11-03T19:12:45.024Z,18.90
2022-11-03T19:15:27.695Z,18.90
2022-11-03T19:18:01.209Z,18.90
2022-11-03T19:20:31.440Z,18.90
2022-11-03T19:23:01.684Z,18.90
2022-11-03T19:25:31.817Z,18.90
2022-11-03T19:28:02.146Z,18.90
2022-11-03T19:30:32.345Z,18.90
2022-11-03T19:33:02.754Z,18.90
2022-11-03T19:35:36.536Z,18.90
2022-11-03T19:38:13.110Z,18.90
2022-11-03T19:41:01.793Z,18.90
2022-11-03T19:43:34.801Z,18.90
2022-11-03T19:46:06.548Z,18.90
2022-11-03T19:48:37.483Z,18.80
2022-11-03T19:51:09.149Z,18.80
2022-11-03T19:53:43.184Z,18.80
2022-11-03T19:56:18.770Z,18.80
2022-11-03T19:58:49.317Z,18.80
2022-11-03T20:01:19.725Z,18.80
2022-11-03T20:03:50.198Z,18.80
2022-11-03T20:06:20.790Z,18.80
2022-11-03T20:08:51.363Z,18.70
2022-11-03T20:11:22.467Z,18.70
2022-11-03T20:13:52.860Z,18.70
2022-11-03T20:16:23.210Z,18.70
2022-11-03T20:18:55.107Z,18.70
2022-11-03T20:21:28.918Z,18.70
2022-11-03T20:24:04.692Z,18.70
2022-11-03T20:26:36.090Z,18.60
2022-11-03T20:29:12.575Z,18.70
2022-11-03T20:31:44.618Z,18.70
2022-11-03T20:34:18.957Z,18.70
2022-11-03T20:36:49.838Z,18.70
2022-11-03T20:39:21.919Z,18.70
2022-11-03T20:41:55.268Z,18.70
2022-11-03T20:44:25.650Z,18.80
2022-11-03T20:46:58.804Z,18.80
2022-11-03T20:49:29.089Z,18.90
2022-11-03T20:51:59.333Z,18.90
2022-11-03T20:54:29.514Z,18.90
2022-11-03T20:56:59.748Z,19.00
2022-11-03T20:59:34.619Z,19.00
2022-11-03T21:02:13.732Z,19.00
2022-11-03T21:04:45.595Z,19.00
2022-11-03T21:07:16.309Z,19.00
2022-11-03T21:09:46.515Z,19.10
2022-11-03T21:12:16.873Z,19.10
2022-11-03T21:15:06.873Z,19.10
2022-11-03T21:17:55.065Z,19.10
2022-11-03T21:20:25.351Z,19.10
2022-11-03T21:22:55.675Z,19.10
2022-11-03T21:25:26.398Z,19.10
2022-11-03T21:27:57.075Z,19.20
2022-11-03T21:30:27.185Z,19.20
2022-11-03T21:32:57.536Z,19.20
2022-11-03T21:35:27.736Z,19.30
2022-11-03T21:37:57.968Z,19.30
2022-11-03T21:40:28.302Z,19.30
2022-11-03T21:43:16.855Z,19.30
2022-11-03T21:45:47.327Z,19.30
2022-11-03T21:48:35.640Z,19.40
2022-11-03T21:51:05.876Z,19.40
2022-11-03T21:53:36.217Z,19.40
2022-11-03T21:56:07.751Z,19.40
2022-11-03T21:58:39.658Z,19.40
2022-11-03T22:01:10.574Z,19.40
2022-11-03T22:03:41.275Z,19.50
2022-11-03T22:06:12.887Z,19.50
2022-11-03T22:08:45.984Z,19.50
2022-11-03T22:11:25.424Z,19.60
2022-11-03T22:14:01.277Z,19.60
2022-11-03T22:16:43.394Z,19.60
2022-11-03T22:19:35.637Z,19.60
2022-11-03T22:22:33.369Z,19.70
2022-11-03T22:25:21.740Z,19.60
2022-11-03T22:27:52.160Z,19.70
2022-11-03T22:30:40.561Z,19.70
2022-11-03T22:33:10.843Z,19.70
2022-11-03T22:35:58.947Z,19.70
2022-11-03T22:38:47.236Z,19.70
2022-11-03T22:41:35.301Z,19.70
2022-11-03T22:44:23.835Z,19.70
2022-11-03T22:46:54.365Z,19.70
2022-11-03T22:49:24.791Z,19.70
2022-11-03T22:51:55.152Z,19.70
2022-11-03T22:54:25.625Z,19.80
2022-11-03T22:56:56.261Z,19.80
2022-11-03T22:59:26.484Z,19.80
2022-11-03T23:01:56.753Z,19.80
2022-11-03T23:04:26.970Z,19.80
2022-11-03T23:06:57.102Z,19.80
2022-11-03T23:09:27.378Z,19.80
2022-11-03T23:11:57.550Z,19.90
2022-11-03T23:14:47.433Z,19.90
2022-11-03T23:17:17.554Z,19.90
2022-11-03T23:20:05.525Z,19.90
2022-11-03T23:22:35.772Z,19.90
2022-11-03T23:25:06.066Z,19.90
2022-11-03T23:27:36.262Z,19.90
2022-11-03T23:30:06.851Z,20.00
2022-11-03T23:32:37.065Z,20.00
2022-11-03T23:35:07.655Z,20.00
2022-11-03T23:37:37.820Z,20.00
2022-11-03T23:40:08.436Z,20.00
2022-11-03T23:42:38.680Z,20.00
2022-11-03T23:45:27.166Z,20.10
2022-11-03T23:48:15.146Z,20.10
2022-11-03T23:50:46.573Z,20.10
2022-11-03T23:53:16.744Z,20.10
2022-11-03T23:56:04.857Z,20.10
2022-11-03T23:58:35.122Z,20.10
